Metar

!!! Benutzen Sie f├╝r Ihre Flugvorbereitung die offiziellen Quellen !!!

Metar:

EDQM 221450Z 32009KT 280V350 9999 SCT021 BKN029 12/09 Q1017

QNH: 1017
Temperatur: 12
Dew Point : 9

 

METAR (decoded)